createdAt,value
2023-04-29T00:00:21.004Z,16.17
2023-04-29T00:02:48.671Z,16.21
2023-04-29T00:05:16.657Z,16.29
2023-04-29T00:07:44.381Z,16.38
2023-04-29T00:10:14.322Z,16.44
2023-04-29T00:12:42.580Z,16.53
2023-04-29T00:18:10.474Z,16.54
2023-04-29T00:20:40.980Z,16.43
2023-04-29T00:23:08.606Z,16.48
2023-04-29T00:25:36.413Z,16.61
2023-04-29T00:28:05.323Z,16.77
2023-04-29T00:30:34.053Z,16.93
2023-04-29T00:33:01.721Z,17.13
2023-04-29T00:35:29.682Z,17.29
2023-04-29T00:37:56.714Z,17.43
2023-04-29T00:40:23.893Z,17.52
2023-04-29T00:42:51.353Z,17.58
2023-04-29T00:45:18.781Z,17.60
2023-04-29T00:47:45.911Z,17.60
2023-04-29T00:50:13.523Z,17.62
2023-04-29T00:52:40.679Z,17.67
2023-04-29T00:55:08.758Z,17.77
2023-04-29T00:57:36.067Z,17.92
2023-04-29T01:00:03.946Z,18.07
2023-04-29T01:02:31.903Z,18.18
2023-04-29T01:04:59.569Z,18.34
2023-04-29T01:07:36.642Z,18.55
2023-04-29T01:10:14.168Z,18.71
2023-04-29T01:13:28.655Z,18.92
2023-04-29T01:16:07.721Z,19.03
2023-04-29T01:18:41.562Z,19.15
2023-04-29T01:21:09.672Z,19.28
2023-04-29T01:23:36.754Z,19.38
2023-04-29T01:26:05.642Z,19.53
2023-04-29T01:29:24.608Z,19.66
2023-04-29T01:32:09.078Z,19.82
2023-04-29T01:34:42.503Z,19.92
2023-04-29T01:37:22.093Z,20.06
2023-04-29T01:40:19.203Z,20.18
2023-04-29T01:43:03.094Z,20.27
2023-04-29T01:45:32.539Z,20.39
2023-04-29T01:47:59.740Z,20.56
2023-04-29T01:50:27.733Z,20.81
2023-04-29T01:53:00.136Z,21.06
2023-04-29T01:55:27.635Z,21.36
2023-04-29T01:58:12.053Z,21.73
2023-04-29T02:01:01.294Z,22.04
2023-04-29T02:03:32.057Z,22.24
2023-04-29T02:06:02.472Z,22.57
2023-04-29T02:08:29.601Z,22.99
2023-04-29T02:10:58.925Z,23.27
2023-04-29T02:13:37.921Z,23.50
2023-04-29T02:16:13.070Z,23.84
2023-04-29T02:18:47.916Z,24.05
2023-04-29T02:21:15.867Z,24.07
2023-04-29T02:23:42.956Z,24.14
2023-04-29T02:26:10.323Z,24.09
2023-04-29T02:28:37.743Z,24.03
2023-04-29T02:31:05.137Z,24.07
2023-04-29T02:33:33.360Z,24.11
2023-04-29T02:36:00.632Z,24.10
2023-04-29T02:38:27.903Z,24.11
2023-04-29T02:40:55.600Z,24.16
2023-04-29T02:43:23.102Z,24.17
2023-04-29T02:45:50.370Z,24.18
2023-04-29T02:53:52.241Z,24.34
2023-04-29T02:56:19.377Z,24.32
2023-04-29T02:58:47.020Z,24.41
2023-04-29T03:01:14.163Z,24.55
2023-04-29T03:03:42.050Z,24.70
2023-04-29T03:06:09.587Z,24.74
2023-04-29T03:08:37.284Z,24.78
2023-04-29T03:11:05.382Z,24.92
2023-04-29T03:13:32.489Z,25.12
2023-04-29T03:16:01.518Z,25.28
2023-04-29T03:18:29.356Z,25.44
2023-04-29T03:20:56.346Z,25.74
2023-04-29T03:23:23.854Z,25.93
2023-04-29T03:25:51.989Z,26.05
2023-04-29T03:28:19.546Z,26.02
2023-04-29T03:30:48.111Z,26.02
2023-04-29T03:33:15.763Z,25.92
2023-04-29T03:35:43.641Z,25.96
2023-04-29T03:38:31.234Z,26.05
2023-04-29T03:40:58.737Z,26.04
2023-04-29T03:43:25.826Z,25.97
2023-04-29T03:45:53.516Z,25.87
2023-04-29T03:48:22.802Z,25.80
2023-04-29T03:50:50.464Z,25.77
2023-04-29T03:53:18.320Z,25.78
2023-04-29T03:55:45.765Z,25.96
2023-04-29T03:58:13.270Z,26.25
2023-04-29T04:00:41.088Z,26.40
2023-04-29T04:03:14.059Z,26.60
2023-04-29T04:05:41.395Z,26.70
2023-04-29T04:08:12.308Z,26.78
2023-04-29T04:10:49.740Z,26.80
2023-04-29T04:13:30.582Z,26.76
2023-04-29T04:15:58.713Z,26.57
2023-04-29T04:18:26.634Z,26.44
2023-04-29T04:20:53.844Z,26.51
2023-04-29T04:23:21.210Z,26.69
2023-04-29T04:25:48.770Z,26.90
2023-04-29T04:28:36.304Z,27.26
2023-04-29T04:31:08.717Z,27.61
2023-04-29T04:33:36.855Z,28.12
2023-04-29T04:36:04.087Z,28.59
2023-04-29T04:38:32.572Z,28.85
2023-04-29T04:41:01.388Z,29.04
2023-04-29T04:43:35.137Z,29.08
2023-04-29T04:46:13.731Z,28.98
2023-04-29T04:48:51.185Z,28.80
2023-04-29T04:51:20.828Z,28.73
2023-04-29T04:53:48.150Z,28.59
2023-04-29T04:56:20.294Z,28.27
2023-04-29T04:58:47.701Z,27.81
2023-04-29T05:01:15.333Z,27.43
2023-04-29T05:03:42.836Z,27.05
2023-04-29T05:06:10.642Z,26.64
2023-04-29T05:08:41.228Z,26.13
2023-04-29T05:11:19.859Z,25.67
2023-04-29T05:14:00.836Z,25.07
2023-04-29T05:16:28.569Z,24.10
2023-04-29T05:18:57.721Z,23.28
2023-04-29T05:21:29.976Z,22.62
2023-04-29T05:23:58.074Z,22.18
2023-04-29T05:26:25.480Z,21.76
2023-04-29T05:28:55.204Z,21.46
2023-04-29T05:31:23.481Z,21.09
2023-04-29T05:33:50.901Z,20.93
2023-04-29T05:36:18.513Z,20.63
2023-04-29T05:38:45.895Z,20.52
2023-04-29T05:41:14.181Z,20.57
2023-04-29T05:43:46.488Z,20.46
2023-04-29T05:46:16.418Z,20.47
2023-04-29T05:48:43.705Z,20.49
2023-04-29T05:51:13.935Z,20.50
2023-04-29T05:53:41.505Z,20.45
2023-04-29T05:56:09.194Z,20.33
2023-04-29T05:58:37.445Z,20.16
2023-04-29T06:01:05.010Z,20.11
2023-04-29T06:03:32.488Z,20.12
2023-04-29T06:06:22.724Z,20.13
2023-04-29T06:09:02.114Z,20.13
2023-04-29T06:11:31.346Z,20.17
2023-04-29T06:14:00.922Z,20.32
2023-04-29T06:16:28.813Z,20.34
2023-04-29T06:18:56.817Z,20.24
2023-04-29T06:21:24.338Z,20.06
2023-04-29T06:23:53.112Z,19.93
2023-04-29T06:26:21.348Z,19.88
2023-04-29T06:28:48.964Z,19.99
2023-04-29T06:31:16.660Z,20.36
2023-04-29T06:33:44.401Z,20.70
2023-04-29T06:36:12.074Z,20.87
2023-04-29T06:39:07.560Z,20.86
2023-04-29T06:41:51.963Z,20.81
2023-04-29T06:44:37.364Z,20.75
2023-04-29T06:47:25.132Z,20.66
2023-04-29T06:50:05.279Z,20.68
2023-04-29T06:52:33.257Z,20.85
2023-04-29T06:55:01.072Z,21.16
2023-04-29T06:57:28.579Z,21.26
2023-04-29T06:59:56.120Z,21.21
2023-04-29T07:02:25.046Z,21.31
2023-04-29T07:04:52.781Z,21.38
2023-04-29T07:07:20.609Z,21.45
2023-04-29T07:09:51.889Z,21.51
2023-04-29T07:12:20.529Z,21.44
2023-04-29T07:14:47.745Z,21.35
2023-04-29T07:17:15.509Z,21.27
2023-04-29T07:19:43.101Z,21.16
2023-04-29T07:22:10.987Z,21.15
2023-04-29T07:24:38.593Z,21.16
2023-04-29T07:27:06.710Z,21.19
2023-04-29T07:29:33.863Z,21.10
2023-04-29T07:32:00.894Z,20.97
2023-04-29T07:34:28.205Z,20.92
2023-04-29T07:36:57.318Z,20.94
2023-04-29T07:39:24.761Z,20.98
2023-04-29T07:41:55.817Z,20.91
2023-04-29T07:44:23.800Z,20.93
2023-04-29T07:46:50.928Z,20.88
2023-04-29T07:49:18.642Z,20.90
2023-04-29T07:51:46.405Z,21.03
2023-04-29T07:54:14.041Z,21.13
2023-04-29T07:56:41.917Z,21.13
2023-04-29T07:59:09.343Z,21.07
2023-04-29T08:01:36.484Z,21.02
2023-04-29T08:04:04.034Z,20.86
2023-04-29T08:06:35.543Z,20.74
2023-04-29T08:09:03.340Z,20.64
2023-04-29T08:11:30.863Z,20.74
2023-04-29T08:13:59.782Z,20.64
2023-04-29T08:16:27.957Z,20.57
2023-04-29T08:18:55.921Z,20.71
2023-04-29T08:21:24.117Z,20.85
2023-04-29T08:23:51.216Z,20.97
2023-04-29T08:26:18.838Z,20.96
2023-04-29T08:28:46.164Z,20.92
2023-04-29T08:31:20.545Z,20.94
2023-04-29T08:33:48.137Z,21.00
2023-04-29T08:36:15.532Z,21.12
2023-04-29T08:38:42.788Z,21.28
2023-04-29T08:41:09.997Z,21.37
2023-04-29T08:43:37.799Z,21.36
2023-04-29T08:46:05.037Z,21.29
2023-04-29T08:48:32.637Z,21.18
2023-04-29T08:51:01.986Z,21.08
2023-04-29T08:53:29.440Z,20.98
2023-04-29T08:55:58.148Z,20.88
2023-04-29T08:58:26.426Z,20.79
2023-04-29T09:00:53.712Z,20.72
2023-04-29T09:03:24.534Z,20.64
2023-04-29T09:05:54.865Z,20.54
2023-04-29T09:08:23.698Z,20.47
2023-04-29T09:10:54.624Z,20.38
2023-04-29T09:13:28.828Z,20.33
2023-04-29T09:15:56.241Z,20.29
2023-04-29T09:18:43.517Z,20.24
2023-04-29T09:21:13.806Z,20.18
2023-04-29T09:23:41.713Z,20.13
2023-04-29T09:26:09.241Z,20.10
2023-04-29T09:28:36.674Z,20.02
2023-04-29T09:31:08.243Z,20.04
2023-04-29T09:33:55.294Z,20.14
2023-04-29T09:36:40.619Z,20.22
2023-04-29T09:39:26.215Z,20.41
2023-04-29T09:41:53.587Z,20.55
2023-04-29T09:44:32.064Z,20.68
2023-04-29T09:47:02.715Z,20.92
2023-04-29T09:49:32.440Z,21.25
2023-04-29T09:52:03.967Z,21.62
2023-04-29T09:54:32.846Z,21.90
2023-04-29T09:57:02.378Z,22.06
2023-04-29T09:59:29.832Z,22.18
2023-04-29T10:01:57.759Z,22.19
2023-04-29T10:04:26.332Z,22.15
2023-04-29T10:06:54.823Z,22.09
2023-04-29T10:09:23.126Z,22.08
2023-04-29T10:11:53.848Z,22.09
2023-04-29T10:14:22.111Z,22.03
2023-04-29T10:16:50.723Z,22.02
2023-04-29T10:19:39.982Z,21.99
2023-04-29T10:22:12.786Z,21.94
2023-04-29T10:24:40.175Z,21.90
2023-04-29T10:27:14.359Z,21.81
2023-04-29T10:29:41.794Z,21.75
2023-04-29T10:32:10.532Z,21.76
2023-04-29T10:34:39.414Z,21.80
2023-04-29T10:37:08.821Z,21.94
2023-04-29T10:39:58.429Z,22.17
2023-04-29T10:42:37.347Z,22.40
2023-04-29T10:45:24.358Z,22.49
2023-04-29T10:48:20.998Z,22.38
2023-04-29T10:50:48.964Z,22.22
2023-04-29T10:53:16.651Z,22.11
2023-04-29T10:55:50.813Z,22.06
2023-04-29T10:58:36.536Z,21.99
2023-04-29T11:01:04.265Z,21.93
2023-04-29T11:03:59.996Z,21.88
2023-04-29T11:06:36.848Z,21.81
2023-04-29T11:09:08.792Z,21.72
2023-04-29T11:11:58.152Z,21.62
2023-04-29T11:14:37.300Z,21.57
2023-04-29T11:17:11.244Z,21.52
2023-04-29T11:19:47.255Z,21.54
2023-04-29T11:22:17.807Z,21.53
2023-04-29T11:24:53.256Z,21.56
2023-04-29T11:27:24.860Z,21.60
2023-04-29T11:29:58.037Z,21.65
2023-04-29T11:32:26.959Z,21.63
2023-04-29T11:34:55.204Z,21.64
2023-04-29T11:37:26.870Z,21.61
2023-04-29T11:39:59.893Z,21.58
2023-04-29T11:42:27.510Z,21.55
2023-04-29T11:44:56.957Z,21.43
2023-04-29T11:47:28.956Z,21.34
2023-04-29T11:50:07.853Z,21.31
2023-04-29T11:52:37.035Z,21.26
2023-04-29T11:55:05.228Z,21.21
2023-04-29T11:57:32.390Z,21.16
2023-04-29T11:59:59.700Z,21.14
2023-04-29T12:02:33.987Z,21.09
2023-04-29T12:05:05.735Z,21.02
2023-04-29T12:07:33.301Z,20.92
2023-04-29T12:10:00.698Z,20.81
2023-04-29T12:12:28.207Z,20.68
2023-04-29T12:14:55.678Z,20.56
2023-04-29T12:17:23.100Z,20.43
2023-04-29T12:19:51.584Z,20.32
2023-04-29T12:22:19.510Z,20.21
2023-04-29T12:24:46.789Z,20.11
2023-04-29T12:27:14.145Z,20.02
2023-04-29T12:29:41.641Z,19.92
2023-04-29T12:32:13.379Z,19.80
2023-04-29T12:34:40.807Z,19.70
2023-04-29T12:37:09.526Z,19.62
2023-04-29T12:39:36.919Z,19.54
2023-04-29T12:42:04.353Z,19.46
2023-04-29T12:44:37.783Z,19.42
2023-04-29T12:47:10.054Z,19.37
2023-04-29T12:49:38.227Z,19.32
2023-04-29T12:52:09.032Z,19.23
2023-04-29T12:54:37.151Z,19.14
2023-04-29T12:57:04.305Z,19.06
2023-04-29T12:59:31.526Z,18.99
2023-04-29T13:01:58.807Z,18.90
2023-04-29T13:04:26.259Z,18.81
2023-04-29T13:07:00.258Z,18.70
2023-04-29T13:09:27.634Z,18.61
2023-04-29T13:11:54.657Z,18.55
2023-04-29T13:14:22.035Z,18.52
2023-04-29T13:16:49.244Z,18.50
2023-04-29T13:19:30.541Z,18.46
2023-04-29T13:22:04.017Z,18.37
2023-04-29T13:24:32.723Z,18.34
2023-04-29T13:27:00.302Z,18.30
2023-04-29T13:29:27.368Z,18.27
2023-04-29T13:31:54.556Z,18.20
2023-04-29T13:34:21.736Z,18.12
2023-04-29T13:36:49.019Z,17.99
2023-04-29T13:39:17.198Z,17.82
2023-04-29T13:41:46.125Z,17.63
2023-04-29T13:46:47.513Z,17.17
2023-04-29T13:49:29.126Z,16.95
2023-04-29T13:59:44.713Z,16.14
2023-04-29T14:02:25.920Z,15.88
2023-04-29T14:04:54.485Z,15.72
2023-04-29T14:07:22.918Z,15.55
2023-04-29T14:09:49.848Z,15.37
2023-04-29T14:12:16.879Z,15.24
2023-04-29T14:14:44.324Z,15.12
2023-04-29T14:17:11.901Z,14.97
2023-04-29T14:19:38.973Z,14.93
2023-04-29T14:22:06.169Z,14.79
2023-04-29T14:24:33.404Z,14.66
2023-04-29T14:27:02.005Z,14.53
2023-04-29T14:29:29.505Z,14.42
2023-04-29T14:31:57.289Z,14.34
2023-04-29T14:34:24.299Z,14.25
2023-04-29T14:36:51.932Z,14.19
2023-04-29T14:39:18.866Z,14.08
2023-04-29T14:41:46.514Z,13.95
2023-04-29T14:44:13.902Z,13.82
2023-04-29T14:46:41.857Z,13.75
2023-04-29T14:49:09.199Z,13.58
2023-04-29T14:51:36.483Z,13.49
2023-04-29T14:54:03.913Z,13.41
2023-04-29T14:56:31.293Z,13.32
2023-04-29T14:58:58.361Z,13.19
2023-04-29T15:01:28.314Z,13.12
2023-04-29T15:03:57.114Z,13.05
2023-04-29T15:06:24.865Z,13.01
2023-04-29T15:08:52.098Z,12.99
2023-04-29T15:11:19.751Z,12.96
2023-04-29T15:13:46.727Z,12.95
2023-04-29T15:16:13.865Z,12.93
2023-04-29T15:18:43.357Z,12.90
2023-04-29T15:21:12.970Z,12.87
2023-04-29T15:23:40.551Z,12.83
2023-04-29T15:26:08.429Z,12.78
2023-04-29T15:28:35.877Z,12.71
2023-04-29T15:31:04.465Z,12.61
2023-04-29T15:33:32.834Z,12.56
2023-04-29T15:36:00.517Z,12.49
2023-04-29T15:38:29.169Z,12.43
2023-04-29T15:41:00.561Z,12.37
2023-04-29T15:43:28.399Z,12.27
2023-04-29T15:45:55.826Z,12.18
2023-04-29T15:48:24.583Z,12.14
2023-04-29T15:50:52.332Z,12.09
2023-04-29T15:53:19.723Z,12.03
2023-04-29T15:55:46.588Z,11.96
2023-04-29T15:58:14.015Z,11.88
2023-04-29T16:00:41.757Z,11.83
2023-04-29T16:03:08.911Z,11.79
2023-04-29T16:05:36.721Z,11.71
2023-04-29T16:08:04.772Z,11.66
2023-04-29T16:10:32.457Z,11.63
2023-04-29T16:13:00.832Z,11.61
2023-04-29T16:15:28.980Z,11.55
2023-04-29T16:17:56.006Z,11.50
2023-04-29T16:20:23.373Z,11.42
2023-04-29T16:22:50.538Z,11.38
2023-04-29T16:25:18.152Z,11.35
2023-04-29T16:27:45.639Z,11.29
2023-04-29T16:30:13.024Z,11.25
2023-04-29T16:32:42.603Z,11.19
2023-04-29T16:35:13.009Z,11.17
2023-04-29T16:37:40.215Z,11.16
2023-04-29T16:40:08.102Z,11.09
2023-04-29T16:42:35.604Z,11.06
2023-04-29T16:45:03.126Z,11.02
2023-04-29T16:47:31.350Z,10.96
2023-04-29T16:49:58.627Z,10.92
2023-04-29T16:52:25.945Z,10.87
2023-04-29T16:54:53.293Z,10.84
2023-04-29T16:57:21.595Z,10.79
2023-04-29T16:59:48.903Z,10.79
2023-04-29T17:02:16.147Z,10.73
2023-04-29T17:04:43.738Z,10.72
2023-04-29T17:07:10.926Z,10.74
2023-04-29T17:09:37.891Z,10.71
2023-04-29T17:12:06.762Z,10.71
2023-04-29T17:14:33.918Z,10.69
2023-04-29T17:17:01.368Z,10.68
2023-04-29T17:19:29.028Z,10.62
2023-04-29T17:21:56.576Z,10.59
2023-04-29T17:24:25.169Z,10.54
2023-04-29T17:26:52.524Z,10.50
2023-04-29T17:29:19.484Z,10.45
2023-04-29T17:31:53.949Z,10.43
2023-04-29T17:34:25.132Z,10.42
2023-04-29T17:36:53.057Z,10.37
2023-04-29T17:39:20.303Z,10.31
2023-04-29T17:41:47.350Z,10.32
2023-04-29T17:44:14.814Z,10.31
2023-04-29T17:46:42.548Z,10.30
2023-04-29T17:49:09.935Z,10.26
2023-04-29T17:51:37.587Z,10.23
2023-04-29T17:54:05.606Z,10.24
2023-04-29T17:56:34.584Z,10.23
2023-04-29T17:59:02.589Z,10.19
2023-04-29T18:01:29.678Z,10.19
2023-04-29T18:03:57.517Z,10.22
2023-04-29T18:06:24.742Z,10.19
2023-04-29T18:08:52.338Z,10.17
2023-04-29T18:11:19.847Z,10.17
2023-04-29T18:13:46.817Z,10.14
2023-04-29T18:16:14.094Z,10.08
2023-04-29T18:18:41.447Z,10.05
2023-04-29T18:21:08.462Z,9.99
2023-04-29T18:23:35.760Z,9.95
2023-04-29T18:26:03.420Z,9.87
2023-04-29T18:28:31.032Z,9.83
2023-04-29T18:30:57.916Z,9.81
2023-04-29T18:33:26.292Z,9.79
2023-04-29T18:35:54.428Z,9.75
2023-04-29T18:38:21.657Z,9.73
2023-04-29T18:40:49.097Z,9.69
2023-04-29T18:43:18.266Z,9.67
2023-04-29T18:45:45.564Z,9.66
2023-04-29T18:48:13.463Z,9.61
2023-04-29T18:50:41.001Z,9.58
2023-04-29T18:53:08.289Z,9.59
2023-04-29T18:55:35.880Z,9.51
2023-04-29T18:58:03.198Z,9.52
2023-04-29T19:00:30.630Z,9.56
2023-04-29T19:02:58.001Z,9.51
2023-04-29T19:05:25.124Z,9.52
2023-04-29T19:07:52.708Z,9.53
2023-04-29T19:10:20.071Z,9.57
2023-04-29T19:12:47.481Z,9.60
2023-04-29T19:15:15.084Z,9.60
2023-04-29T19:17:42.682Z,9.68
2023-04-29T19:20:10.544Z,9.71
2023-04-29T19:22:38.147Z,9.75
2023-04-29T19:25:05.878Z,9.83
2023-04-29T19:27:32.934Z,9.84
2023-04-29T19:30:00.236Z,9.81
2023-04-29T19:32:30.056Z,9.76
2023-04-29T19:34:57.475Z,9.71
2023-04-29T19:37:24.763Z,9.68
2023-04-29T19:39:52.553Z,9.65
2023-04-29T19:42:19.903Z,9.66
2023-04-29T19:44:47.028Z,9.61
2023-04-29T19:47:14.284Z,9.62
2023-04-29T19:49:42.161Z,9.65
2023-04-29T19:52:09.070Z,9.67
2023-04-29T19:54:36.802Z,9.69
2023-04-29T19:57:04.136Z,9.69
2023-04-29T19:59:31.501Z,9.74
2023-04-29T20:01:58.907Z,9.75
2023-04-29T20:04:26.612Z,9.79
2023-04-29T20:06:53.922Z,9.80
2023-04-29T20:09:21.507Z,9.78
2023-04-29T20:11:48.523Z,9.77
2023-04-29T20:14:15.994Z,9.71
2023-04-29T20:16:42.985Z,9.64
2023-04-29T20:19:10.597Z,9.61
2023-04-29T20:21:39.865Z,9.55
2023-04-29T20:24:07.972Z,9.47
2023-04-29T20:26:35.408Z,9.38
2023-04-29T20:29:03.025Z,9.27
2023-04-29T20:31:30.170Z,9.23
2023-04-29T20:33:57.280Z,9.18
2023-04-29T20:36:24.729Z,9.16
2023-04-29T20:38:52.381Z,9.14
2023-04-29T20:41:19.556Z,9.09
2023-04-29T20:43:46.720Z,9.06
2023-04-29T20:46:15.667Z,9.02
2023-04-29T20:48:43.312Z,8.99
2023-04-29T20:51:12.090Z,8.97
2023-04-29T20:53:39.424Z,8.94
2023-04-29T20:56:08.756Z,8.94
2023-04-29T20:58:35.901Z,8.92
2023-04-29T21:01:03.128Z,8.89
2023-04-29T21:03:30.492Z,8.85
2023-04-29T21:05:57.826Z,8.80
2023-04-29T21:08:25.318Z,8.77
2023-04-29T21:10:52.434Z,8.72
2023-04-29T21:13:19.780Z,8.70
2023-04-29T21:15:46.816Z,8.65
2023-04-29T21:18:14.347Z,8.60
2023-04-29T21:20:41.545Z,8.55
2023-04-29T21:23:08.850Z,8.51
2023-04-29T21:25:36.194Z,8.45
2023-04-29T21:28:04.269Z,8.43
2023-04-29T21:30:31.501Z,8.32
2023-04-29T21:32:59.007Z,8.30
2023-04-29T21:35:26.644Z,8.25
2023-04-29T21:37:54.380Z,8.16
2023-04-29T21:40:22.367Z,8.10
2023-04-29T21:42:50.958Z,8.06
2023-04-29T21:45:18.243Z,8.03
2023-04-29T21:47:45.883Z,7.99
2023-04-29T21:50:13.069Z,7.90
2023-04-29T21:52:40.111Z,7.84
2023-04-29T21:55:07.750Z,7.77
2023-04-29T21:57:43.995Z,7.68
2023-04-29T22:00:28.622Z,7.62
2023-04-29T22:02:56.245Z,7.61
2023-04-29T22:05:24.514Z,7.55
2023-04-29T22:07:51.814Z,7.53
2023-04-29T22:10:19.129Z,7.54
2023-04-29T22:12:46.318Z,7.52
2023-04-29T22:15:26.898Z,7.48
2023-04-29T22:17:56.499Z,7.38
2023-04-29T22:20:23.623Z,7.34
2023-04-29T22:22:51.717Z,7.30
2023-04-29T22:25:22.132Z,7.26
2023-04-29T22:27:49.772Z,7.31
2023-04-29T22:30:20.445Z,7.33
2023-04-29T22:32:47.679Z,7.38
2023-04-29T22:35:15.734Z,7.39
2023-04-29T22:37:43.224Z,7.43
2023-04-29T22:40:11.568Z,7.44
2023-04-29T22:42:39.369Z,7.40
2023-04-29T22:45:06.956Z,7.41
2023-04-29T22:47:34.319Z,7.43
2023-04-29T22:50:01.616Z,7.49
2023-04-29T22:52:28.956Z,7.51
2023-04-29T22:54:56.149Z,7.60
2023-04-29T22:57:23.493Z,7.66
2023-04-29T22:59:56.300Z,7.65
2023-04-29T23:02:32.978Z,7.65
2023-04-29T23:05:00.717Z,7.63
2023-04-29T23:07:30.532Z,7.70
2023-04-29T23:09:58.089Z,7.77
2023-04-29T23:12:25.459Z,7.82
2023-04-29T23:14:52.535Z,7.77
2023-04-29T23:17:19.878Z,7.79
2023-04-29T23:19:47.149Z,7.84
2023-04-29T23:22:14.811Z,7.86
2023-04-29T23:24:42.147Z,7.84
2023-04-29T23:27:09.412Z,7.81
2023-04-29T23:29:36.420Z,7.79
2023-04-29T23:32:03.596Z,7.80
2023-04-29T23:34:30.924Z,7.81
2023-04-29T23:36:57.829Z,7.89
2023-04-29T23:39:25.824Z,7.92
2023-04-29T23:41:53.101Z,7.87
2023-04-29T23:44:20.824Z,7.79
2023-04-29T23:46:48.254Z,7.71
2023-04-29T23:49:15.393Z,7.69
2023-04-29T23:51:42.827Z,7.70
2023-04-29T23:54:10.110Z,7.76
2023-04-29T23:56:37.457Z,7.80
2023-04-29T23:59:04.902Z,7.85
